Carter, Indiana
Current Conditions -  °F | °C
As of 6:15 PM on Friday 24 Oct 2014 (Local Time) from KHNB Reporting Station
Clear Clear  
Wind Chill: 63°   Ceiling: Unl
Heat Index: 63°   Visibility: 10mi
Dew Point: 48°   Wind: 3mph
Humidity: 59%   Direction: 240°WSW
Pressure: 30.05"   Gusts: NA
Location:  38.17°N, 87.0282°W
Report Text: KHNB 242315Z AUTO 24003KT 10SM CLR 17/09 A3005 RMK AO1
Loading
Personal Weather Stations






























Interactive Weather Map
Tropical Storm Tracking
New forecast layout! Learn more

10-Day Weather Forecast

Advertisements
Track Severe Weather on mobile